sensor_id;sensor_type;location;lat;lon;timestamp;pressure;altitude;pressure_sealevel;temperature;humidity
57000;BME280;42891;50.006;21.964;2023-02-22T00:01:00;98784.88;;;5.44;70.17
57000;BME280;42891;50.006;21.964;2023-02-22T00:05:06;98752.81;;;5.41;70.01
57000;BME280;42891;50.006;21.964;2023-02-22T00:09:07;98786.91;;;5.65;70.20
57000;BME280;42891;50.006;21.964;2023-02-22T00:13:10;98796.13;;;5.71;69.29
57000;BME280;42891;50.006;21.964;2023-02-22T00:17:12;98790.91;;;5.58;69.57
57000;BME280;42891;50.006;21.964;2023-02-22T00:21:13;98773.25;;;5.49;70.00
57000;BME280;42891;50.006;21.964;2023-02-22T00:25:19;98787.41;;;5.70;69.28
57000;BME280;42891;50.006;21.964;2023-02-22T00:29:20;98781.97;;;5.60;69.65
57000;BME280;42891;50.006;21.964;2023-02-22T00:33:22;98797.34;;;5.78;69.40
57000;BME280;42891;50.006;21.964;2023-02-22T00:37:22;98784.78;;;5.70;69.66
57000;BME280;42891;50.006;21.964;2023-02-22T00:41:22;98795.78;;;5.75;69.57
57000;BME280;42891;50.006;21.964;2023-02-22T00:45:25;98791.31;;;5.64;69.47
57000;BME280;42891;50.006;21.964;2023-02-22T00:49:26;98802.59;;;6.02;69.11
57000;BME280;42891;50.006;21.964;2023-02-22T00:53:26;98807.81;;;5.78;68.73
57000;BME280;42891;50.006;21.964;2023-02-22T00:57:26;98787.41;;;5.70;69.13
57000;BME280;42891;50.006;21.964;2023-02-22T01:01:27;98815.34;;;5.83;68.62
57000;BME280;42891;50.006;21.964;2023-02-22T01:05:28;98800.38;;;5.47;69.64
57000;BME280;42891;50.006;21.964;2023-02-22T01:09:29;98814.22;;;5.74;68.76
57000;BME280;42891;50.006;21.964;2023-02-22T01:13:29;98817.44;;;5.90;68.58
57000;BME280;42891;50.006;21.964;2023-02-22T01:17:29;98814.34;;;5.96;67.82
57000;BME280;42891;50.006;21.964;2023-02-22T01:21:29;98798.06;;;5.80;68.41
57000;BME280;42891;50.006;21.964;2023-02-22T01:25:30;98801.84;;;5.76;67.92
57000;BME280;42891;50.006;21.964;2023-02-22T01:29:30;98808.47;;;5.69;68.49
57000;BME280;42891;50.006;21.964;2023-02-22T01:33:31;98808.69;;;5.66;68.36
57000;BME280;42891;50.006;21.964;2023-02-22T01:37:33;98806.53;;;5.46;68.43
57000;BME280;42891;50.006;21.964;2023-02-22T01:41:34;98820.00;;;5.79;68.62
57000;BME280;42891;50.006;21.964;2023-02-22T01:45:47;98821.34;;;5.72;68.16
57000;BME280;42891;50.006;21.964;2023-02-22T01:49:49;98814.19;;;5.87;68.06
57000;BME280;42891;50.006;21.964;2023-02-22T01:57:54;98826.28;;;5.76;68.51
57000;BME280;42891;50.006;21.964;2023-02-22T02:01:54;98824.72;;;5.74;68.51
57000;BME280;42891;50.006;21.964;2023-02-22T02:05:58;98824.94;;;5.71;68.80
57000;BME280;42891;50.006;21.964;2023-02-22T02:10:05;98830.63;;;5.89;68.39
57000;BME280;42891;50.006;21.964;2023-02-22T02:14:08;98824.56;;;5.51;70.02
57000;BME280;42891;50.006;21.964;2023-02-22T02:18:10;98812.63;;;5.47;69.94
57000;BME280;42891;50.006;21.964;2023-02-22T02:36:03;98837.75;;;5.62;69.95
57000;BME280;42891;50.006;21.964;2023-02-22T02:44:32;98811.97;;;5.56;70.32
57000;BME280;42891;50.006;21.964;2023-02-22T02:48:38;98836.41;;;5.81;69.56
57000;BME280;42891;50.006;21.964;2023-02-22T02:52:42;98835.06;;;5.75;70.35
57000;BME280;42891;50.006;21.964;2023-02-22T02:56:44;98813.72;;;5.69;69.75
57000;BME280;42891;50.006;21.964;2023-02-22T03:00:45;98828.97;;;5.88;69.44
57000;BME280;42891;50.006;21.964;2023-02-22T03:09:26;98854.41;;;5.86;70.53
57000;BME280;42891;50.006;21.964;2023-02-22T03:13:41;98855.56;;;5.94;70.51
57000;BME280;42891;50.006;21.964;2023-02-22T03:17:52;98855.81;;;5.78;70.39
57000;BME280;42891;50.006;21.964;2023-02-22T03:22:02;98866.69;;;5.98;70.50
57000;BME280;42891;50.006;21.964;2023-02-22T03:26:13;98855.38;;;5.85;69.75
57000;BME280;42891;50.006;21.964;2023-02-22T03:30:25;98875.91;;;5.91;69.71
57000;BME280;42891;50.006;21.964;2023-02-22T03:34:32;98866.44;;;5.64;69.90
57000;BME280;42891;50.006;21.964;2023-02-22T03:38:36;98878.97;;;5.85;70.21
57000;BME280;42891;50.006;21.964;2023-02-22T03:42:38;98885.16;;;5.84;70.15
57000;BME280;42891;50.006;21.964;2023-02-22T03:46:41;98872.06;;;5.84;70.13
57000;BME280;42891;50.006;21.964;2023-02-22T03:50:41;98868.25;;;5.88;70.24
57000;BME280;42891;50.006;21.964;2023-02-22T03:54:42;98885.59;;;6.14;69.66
57000;BME280;42891;50.006;21.964;2023-02-22T03:58:44;98884.66;;;6.16;69.58
57000;BME280;42891;50.006;21.964;2023-02-22T04:02:47;98870.88;;;6.01;69.49
57000;BME280;42891;50.006;21.964;2023-02-22T04:06:48;98894.75;;;6.09;69.77
57000;BME280;42891;50.006;21.964;2023-02-22T04:10:48;98879.38;;;5.91;70.19
57000;BME280;42891;50.006;21.964;2023-02-22T04:14:49;98895.81;;;6.06;70.60
57000;BME280;42891;50.006;21.964;2023-02-22T04:18:49;98899.50;;;5.91;70.55
57000;BME280;42891;50.006;21.964;2023-02-22T04:22:51;98886.28;;;5.92;70.35
57000;BME280;42891;50.006;21.964;2023-02-22T04:26:52;98894.22;;;6.04;70.05
57000;BME280;42891;50.006;21.964;2023-02-22T04:30:54;98901.38;;;6.02;70.41
57000;BME280;42891;50.006;21.964;2023-02-22T04:34:54;98886.09;;;5.83;70.87
57000;BME280;42891;50.006;21.964;2023-02-22T04:38:54;98904.84;;;6.02;70.89
57000;BME280;42891;50.006;21.964;2023-02-22T04:42:55;98895.91;;;6.05;71.15
57000;BME280;42891;50.006;21.964;2023-02-22T04:46:55;98897.38;;;6.09;70.88
57000;BME280;42891;50.006;21.964;2023-02-22T04:50:56;98906.69;;;6.13;71.18
57000;BME280;42891;50.006;21.964;2023-02-22T04:54:57;98899.28;;;6.07;70.83
57000;BME280;42891;50.006;21.964;2023-02-22T04:58:57;98912.38;;;6.07;71.35
57000;BME280;42891;50.006;21.964;2023-02-22T05:02:57;98914.03;;;6.08;71.49
57000;BME280;42891;50.006;21.964;2023-02-22T05:06:57;98923.59;;;6.09;71.82
57000;BME280;42891;50.006;21.964;2023-02-22T05:10:58;98915.44;;;5.88;71.72
57000;BME280;42891;50.006;21.964;2023-02-22T05:14:58;98909.06;;;5.79;72.40
57000;BME280;42891;50.006;21.964;2023-02-22T05:18:58;98912.25;;;5.95;72.65
57000;BME280;42891;50.006;21.964;2023-02-22T05:23:00;98920.44;;;5.91;72.09
57000;BME280;42891;50.006;21.964;2023-02-22T05:27:01;98908.91;;;5.93;72.26
57000;BME280;42891;50.006;21.964;2023-02-22T05:31:01;98921.00;;;5.83;72.60
57000;BME280;42891;50.006;21.964;2023-02-22T05:35:01;98929.63;;;5.72;72.71
57000;BME280;42891;50.006;21.964;2023-02-22T05:39:02;98932.34;;;5.71;73.10
57000;BME280;42891;50.006;21.964;2023-02-22T05:43:04;98917.25;;;5.61;73.50
57000;BME280;42891;50.006;21.964;2023-02-22T05:47:04;98928.16;;;5.68;73.53
57000;BME280;42891;50.006;21.964;2023-02-22T05:51:05;98924.50;;;5.45;73.51
57000;BME280;42891;50.006;21.964;2023-02-22T05:55:07;98947.41;;;5.80;73.26
57000;BME280;42891;50.006;21.964;2023-02-22T05:59:08;98958.53;;;5.84;73.83
57000;BME280;42891;50.006;21.964;2023-02-22T06:03:10;98937.03;;;5.78;72.99
57000;BME280;42891;50.006;21.964;2023-02-22T06:07:12;98963.66;;;5.72;73.58
57000;BME280;42891;50.006;21.964;2023-02-22T06:11:12;98920.72;;;5.49;72.67
57000;BME280;42891;50.006;21.964;2023-02-22T06:15:17;98980.97;;;5.75;73.01
57000;BME280;42891;50.006;21.964;2023-02-22T06:19:18;98974.47;;;5.80;73.45
57000;BME280;42891;50.006;21.964;2023-02-22T06:23:18;98969.75;;;5.73;74.03
57000;BME280;42891;50.006;21.964;2023-02-22T06:27:19;98984.41;;;5.88;73.57
57000;BME280;42891;50.006;21.964;2023-02-22T06:31:19;98977.38;;;5.89;74.26
57000;BME280;42891;50.006;21.964;2023-02-22T06:40:11;98966.16;;;5.87;73.75
57000;BME280;42891;50.006;21.964;2023-02-22T06:44:13;98987.31;;;5.96;73.86
57000;BME280;42891;50.006;21.964;2023-02-22T06:48:13;98988.38;;;5.94;74.33
57000;BME280;42891;50.006;21.964;2023-02-22T06:52:14;98996.28;;;6.07;74.20
57000;BME280;42891;50.006;21.964;2023-02-22T06:56:14;99008.97;;;6.00;73.92
57000;BME280;42891;50.006;21.964;2023-02-22T07:00:16;99014.47;;;5.83;74.55
57000;BME280;42891;50.006;21.964;2023-02-22T07:04:17;99012.50;;;5.73;75.91
57000;BME280;42891;50.006;21.964;2023-02-22T07:08:18;99019.94;;;5.79;75.57
57000;BME280;42891;50.006;21.964;2023-02-22T07:12:18;99015.88;;;6.01;74.53
57000;BME280;42891;50.006;21.964;2023-02-22T07:16:18;99015.66;;;5.91;72.35
57000;BME280;42891;50.006;21.964;2023-02-22T07:20:19;99023.94;;;6.11;71.42
57000;BME280;42891;50.006;21.964;2023-02-22T07:24:20;99028.63;;;6.19;70.25
57000;BME280;42891;50.006;21.964;2023-02-22T07:28:20;99026.94;;;6.18;66.98
57000;BME280;42891;50.006;21.964;2023-02-22T07:32:21;99014.38;;;6.23;65.67
57000;BME280;42891;50.006;21.964;2023-02-22T07:36:21;99024.25;;;6.19;64.88
57000;BME280;42891;50.006;21.964;2023-02-22T07:40:23;99009.22;;;5.95;64.46
57000;BME280;42891;50.006;21.964;2023-02-22T07:44:24;99031.47;;;5.77;65.60
57000;BME280;42891;50.006;21.964;2023-02-22T07:48:26;99023.00;;;5.99;64.86
57000;BME280;42891;50.006;21.964;2023-02-22T07:52:27;99017.75;;;5.73;61.72
57000;BME280;42891;50.006;21.964;2023-02-22T07:56:28;99007.34;;;5.59;63.52
57000;BME280;42891;50.006;21.964;2023-02-22T08:00:38;99024.75;;;5.73;60.05
57000;BME280;42891;50.006;21.964;2023-02-22T08:04:39;99027.16;;;5.76;60.04
57000;BME280;42891;50.006;21.964;2023-02-22T08:08:39;99030.25;;;6.08;59.03
57000;BME280;42891;50.006;21.964;2023-02-22T08:12:39;99011.25;;;5.92;58.12
57000;BME280;42891;50.006;21.964;2023-02-22T08:16:40;99025.41;;;6.02;57.68
57000;BME280;42891;50.006;21.964;2023-02-22T08:20:42;99026.97;;;6.05;58.51
57000;BME280;42891;50.006;21.964;2023-02-22T08:24:42;99016.25;;;5.95;58.40
57000;BME280;42891;50.006;21.964;2023-02-22T08:28:43;99034.81;;;6.30;57.60
57000;BME280;42891;50.006;21.964;2023-02-22T08:32:45;99009.78;;;6.01;56.00
57000;BME280;42891;50.006;21.964;2023-02-22T08:36:45;99024.41;;;6.42;56.78
57000;BME280;42891;50.006;21.964;2023-02-22T08:40:46;99046.69;;;6.60;55.50
57000;BME280;42891;50.006;21.964;2023-02-22T08:44:47;99032.41;;;6.64;54.79
57000;BME280;42891;50.006;21.964;2023-02-22T08:48:51;99039.09;;;6.31;51.87
57000;BME280;42891;50.006;21.964;2023-02-22T08:52:53;99039.38;;;6.53;52.68
57000;BME280;42891;50.006;21.964;2023-02-22T08:56:54;99035.41;;;6.34;53.27
57000;BME280;42891;50.006;21.964;2023-02-22T09:00:55;99028.66;;;6.56;54.47
57000;BME280;42891;50.006;21.964;2023-02-22T09:04:55;99052.22;;;6.69;56.91
57000;BME280;42891;50.006;21.964;2023-02-22T09:08:55;99039.63;;;6.74;58.51
57000;BME280;42891;50.006;21.964;2023-02-22T09:12:56;99043.38;;;6.82;58.46
57000;BME280;42891;50.006;21.964;2023-02-22T09:16:57;99050.81;;;6.89;57.40
57000;BME280;42891;50.006;21.964;2023-02-22T09:20:57;99045.22;;;6.93;58.54
57000;BME280;42891;50.006;21.964;2023-02-22T09:24:58;99042.78;;;6.79;59.55
57000;BME280;42891;50.006;21.964;2023-02-22T09:28:58;99052.53;;;6.77;57.49
57000;BME280;42891;50.006;21.964;2023-02-22T09:33:10;99042.25;;;6.74;59.15
57000;BME280;42891;50.006;21.964;2023-02-22T09:37:11;99053.88;;;6.82;61.33
57000;BME280;42891;50.006;21.964;2023-02-22T09:41:19;99045.69;;;6.74;63.14
57000;BME280;42891;50.006;21.964;2023-02-22T09:45:27;99056.53;;;6.70;62.94
57000;BME280;42891;50.006;21.964;2023-02-22T09:49:36;99066.81;;;6.73;62.20
57000;BME280;42891;50.006;21.964;2023-02-22T09:53:42;99067.94;;;6.81;64.03
57000;BME280;42891;50.006;21.964;2023-02-22T09:57:44;99052.69;;;6.87;64.68
57000;BME280;42891;50.006;21.964;2023-02-22T10:01:47;99064.25;;;6.84;64.45
57000;BME280;42891;50.006;21.964;2023-02-22T10:06:01;99053.69;;;7.21;64.77
57000;BME280;42891;50.006;21.964;2023-02-22T10:10:03;99036.06;;;7.23;64.70
57000;BME280;42891;50.006;21.964;2023-02-22T10:14:36;99050.56;;;7.40;63.76
57000;BME280;42891;50.006;21.964;2023-02-22T10:23:26;99051.84;;;7.34;62.79
57000;BME280;42891;50.006;21.964;2023-02-22T10:27:39;99045.53;;;7.37;62.61
57000;BME280;42891;50.006;21.964;2023-02-22T10:31:45;99055.38;;;7.22;61.86
57000;BME280;42891;50.006;21.964;2023-02-22T10:35:50;99052.38;;;7.15;62.38
57000;BME280;42891;50.006;21.964;2023-02-22T10:39:58;99044.13;;;7.20;62.42
57000;BME280;42891;50.006;21.964;2023-02-22T10:44:00;99047.75;;;7.19;61.79
57000;BME280;42891;50.006;21.964;2023-02-22T10:48:06;99052.25;;;7.17;63.61
57000;BME280;42891;50.006;21.964;2023-02-22T10:52:23;99057.00;;;7.12;65.98
57000;BME280;42891;50.006;21.964;2023-02-22T10:56:25;99031.47;;;6.90;65.56
57000;BME280;42891;50.006;21.964;2023-02-22T11:00:28;99050.38;;;7.19;64.77
57000;BME280;42891;50.006;21.964;2023-02-22T11:04:46;99050.53;;;7.29;65.15
57000;BME280;42891;50.006;21.964;2023-02-22T11:08:48;99021.72;;;7.27;64.67
57000;BME280;42891;50.006;21.964;2023-02-22T11:12:50;99041.47;;;7.33;64.75
57000;BME280;42891;50.006;21.964;2023-02-22T11:16:53;99035.31;;;7.21;63.67
57000;BME280;42891;50.006;21.964;2023-02-22T11:21:06;99035.59;;;7.29;63.02
57000;BME280;42891;50.006;21.964;2023-02-22T11:25:17;99020.88;;;7.27;61.86
57000;BME280;42891;50.006;21.964;2023-02-22T11:29:34;99023.00;;;7.22;61.63
57000;BME280;42891;50.006;21.964;2023-02-22T11:33:36;99033.47;;;7.10;61.71
57000;BME280;42891;50.006;21.964;2023-02-22T11:37:37;99035.94;;;7.25;61.54
57000;BME280;42891;50.006;21.964;2023-02-22T11:41:38;99041.06;;;7.26;60.63
57000;BME280;42891;50.006;21.964;2023-02-22T11:45:38;99043.63;;;7.39;60.28
57000;BME280;42891;50.006;21.964;2023-02-22T11:49:42;99048.22;;;7.24;59.13
57000;BME280;42891;50.006;21.964;2023-02-22T11:54:05;99046.72;;;7.33;58.55
57000;BME280;42891;50.006;21.964;2023-02-22T12:15:22;99039.38;;;7.61;53.02
57000;BME280;42891;50.006;21.964;2023-02-22T12:19:32;99045.72;;;7.70;53.76
57000;BME280;42891;50.006;21.964;2023-02-22T12:23:54;99032.84;;;7.78;52.51
57000;BME280;42891;50.006;21.964;2023-02-22T12:28:18;99023.38;;;7.64;50.96
57000;BME280;42891;50.006;21.964;2023-02-22T12:32:40;99034.41;;;7.69;51.02
57000;BME280;42891;50.006;21.964;2023-02-22T12:36:46;99035.91;;;7.60;51.62
57000;BME280;42891;50.006;21.964;2023-02-22T12:44:54;99028.13;;;7.59;51.83
57000;BME280;42891;50.006;21.964;2023-02-22T12:49:09;99033.03;;;7.52;49.96
57000;BME280;42891;50.006;21.964;2023-02-22T12:53:20;99018.22;;;7.51;50.26
57000;BME280;42891;50.006;21.964;2023-02-22T13:01:40;99021.16;;;7.35;48.85
57000;BME280;42891;50.006;21.964;2023-02-22T13:05:43;99026.41;;;8.39;48.53
57000;BME280;42891;50.006;21.964;2023-02-22T13:14:25;99033.53;;;7.80;47.80
57000;BME280;42891;50.006;21.964;2023-02-22T13:18:45;99021.94;;;7.60;48.88
57000;BME280;42891;50.006;21.964;2023-02-22T13:23:02;99029.84;;;7.94;49.06
57000;BME280;42891;50.006;21.964;2023-02-22T13:27:20;99042.75;;;7.85;49.01
57000;BME280;42891;50.006;21.964;2023-02-22T13:31:43;99033.59;;;7.91;49.04
57000;BME280;42891;50.006;21.964;2023-02-22T13:40:36;99034.53;;;7.79;48.57
57000;BME280;42891;50.006;21.964;2023-02-22T13:44:45;99052.06;;;7.31;49.04
57000;BME280;42891;50.006;21.964;2023-02-22T13:48:58;99047.19;;;7.38;50.24
57000;BME280;42891;50.006;21.964;2023-02-22T13:53:06;99034.94;;;7.14;50.51
57000;BME280;42891;50.006;21.964;2023-02-22T13:57:22;99040.09;;;7.27;50.55
57000;BME280;42891;50.006;21.964;2023-02-22T14:17:58;99051.34;;;7.65;48.51
57000;BME280;42891;50.006;21.964;2023-02-22T14:22:02;99047.41;;;7.71;48.83
57000;BME280;42891;50.006;21.964;2023-02-22T14:30:28;99043.47;;;7.65;48.35
57000;BME280;42891;50.006;21.964;2023-02-22T14:34:42;99050.72;;;7.61;47.30
57000;BME280;42891;50.006;21.964;2023-02-22T14:38:43;99037.69;;;7.48;48.44
57000;BME280;42891;50.006;21.964;2023-02-22T14:42:47;99053.22;;;7.51;49.13
57000;BME280;42891;50.006;21.964;2023-02-22T14:46:51;99055.09;;;7.49;48.55
57000;BME280;42891;50.006;21.964;2023-02-22T14:50:57;99056.34;;;7.57;49.06
57000;BME280;42891;50.006;21.964;2023-02-22T14:55:21;99056.47;;;7.55;49.50
57000;BME280;42891;50.006;21.964;2023-02-22T14:59:25;99062.22;;;7.72;50.76
57000;BME280;42891;50.006;21.964;2023-02-22T15:03:32;99061.94;;;7.63;50.21
57000;BME280;42891;50.006;21.964;2023-02-22T15:07:36;99057.53;;;7.64;50.46
57000;BME280;42891;50.006;21.964;2023-02-22T15:11:36;99043.19;;;7.57;50.08
57000;BME280;42891;50.006;21.964;2023-02-22T15:15:39;99057.31;;;7.67;50.16
57000;BME280;42891;50.006;21.964;2023-02-22T15:19:45;99039.84;;;7.66;51.16
57000;BME280;42891;50.006;21.964;2023-02-22T15:23:53;99057.94;;;7.82;49.56
57000;BME280;42891;50.006;21.964;2023-02-22T15:27:59;99060.44;;;7.72;50.06
57000;BME280;42891;50.006;21.964;2023-02-22T15:32:00;99057.94;;;7.71;49.15
57000;BME280;42891;50.006;21.964;2023-02-22T15:36:00;99061.00;;;7.64;49.03
57000;BME280;42891;50.006;21.964;2023-02-22T15:40:06;99063.31;;;7.69;48.92
57000;BME280;42891;50.006;21.964;2023-02-22T15:44:13;99073.72;;;7.82;49.33
57000;BME280;42891;50.006;21.964;2023-02-22T15:48:13;99066.63;;;7.71;49.55
57000;BME280;42891;50.006;21.964;2023-02-22T15:52:18;99076.09;;;7.85;49.30
57000;BME280;42891;50.006;21.964;2023-02-22T15:56:27;99071.66;;;7.74;49.45
57000;BME280;42891;50.006;21.964;2023-02-22T16:00:36;99076.66;;;7.66;49.31
57000;BME280;42891;50.006;21.964;2023-02-22T16:04:37;99074.63;;;7.58;49.76
57000;BME280;42891;50.006;21.964;2023-02-22T16:12:41;99092.16;;;7.58;50.35
57000;BME280;42891;50.006;21.964;2023-02-22T16:16:42;99093.13;;;7.57;50.80
57000;BME280;42891;50.006;21.964;2023-02-22T16:20:42;99084.50;;;7.55;51.06
57000;BME280;42891;50.006;21.964;2023-02-22T16:24:43;99086.97;;;7.45;51.79
57000;BME280;42891;50.006;21.964;2023-02-22T16:28:48;99094.31;;;7.53;51.05
57000;BME280;42891;50.006;21.964;2023-02-22T16:32:53;99090.13;;;7.50;51.15
57000;BME280;42891;50.006;21.964;2023-02-22T16:36:55;99096.19;;;7.50;51.82
57000;BME280;42891;50.006;21.964;2023-02-22T16:40:55;99103.47;;;7.47;51.45
57000;BME280;42891;50.006;21.964;2023-02-22T16:44:57;99096.66;;;7.44;52.05
57000;BME280;42891;50.006;21.964;2023-02-22T16:48:57;99115.44;;;7.51;52.84
57000;BME280;42891;50.006;21.964;2023-02-22T16:53:02;99103.69;;;7.44;53.01
57000;BME280;42891;50.006;21.964;2023-02-22T16:57:03;99120.59;;;7.53;53.06
57000;BME280;42891;50.006;21.964;2023-02-22T17:01:04;99124.03;;;7.53;53.38
57000;BME280;42891;50.006;21.964;2023-02-22T17:05:05;99125.16;;;7.38;54.13
57000;BME280;42891;50.006;21.964;2023-02-22T17:09:06;99119.25;;;7.23;54.50
57000;BME280;42891;50.006;21.964;2023-02-22T17:13:07;99113.03;;;7.24;55.76
57000;BME280;42891;50.006;21.964;2023-02-22T17:17:09;99113.63;;;7.27;55.91
57000;BME280;42891;50.006;21.964;2023-02-22T17:21:11;99116.44;;;7.13;57.22
57000;BME280;42891;50.006;21.964;2023-02-22T17:25:24;99124.91;;;7.05;55.88
57000;BME280;42891;50.006;21.964;2023-02-22T17:29:25;99127.81;;;7.00;57.00
57000;BME280;42891;50.006;21.964;2023-02-22T17:33:30;99128.22;;;6.83;57.28
57000;BME280;42891;50.006;21.964;2023-02-22T17:37:31;99131.88;;;6.68;59.07
57000;BME280;42891;50.006;21.964;2023-02-22T17:41:32;99130.75;;;6.59;59.84
57000;BME280;42891;50.006;21.964;2023-02-22T17:45:32;99135.72;;;6.38;61.18
57000;BME280;42891;50.006;21.964;2023-02-22T17:49:32;99132.56;;;6.32;61.85
57000;BME280;42891;50.006;21.964;2023-02-22T17:53:33;99141.91;;;6.37;62.33
57000;BME280;42891;50.006;21.964;2023-02-22T17:57:34;99137.72;;;6.21;62.80
57000;BME280;42891;50.006;21.964;2023-02-22T18:01:35;99117.69;;;6.07;62.69
57000;BME280;42891;50.006;21.964;2023-02-22T18:05:44;99125.13;;;6.01;63.75
57000;BME280;42891;50.006;21.964;2023-02-22T18:09:46;99139.16;;;6.00;63.88
57000;BME280;42891;50.006;21.964;2023-02-22T18:13:46;99122.94;;;5.67;64.23
57000;BME280;42891;50.006;21.964;2023-02-22T18:17:47;99155.25;;;5.80;65.09
57000;BME280;42891;50.006;21.964;2023-02-22T18:21:48;99135.47;;;5.49;64.92
57000;BME280;42891;50.006;21.964;2023-02-22T18:25:50;99162.81;;;5.45;66.03
57000;BME280;42891;50.006;21.964;2023-02-22T18:29:51;99152.75;;;5.24;66.37
57000;BME280;42891;50.006;21.964;2023-02-22T18:33:51;99158.25;;;5.07;66.77
57000;BME280;42891;50.006;21.964;2023-02-22T18:37:52;99156.94;;;5.00;66.79
57000;BME280;42891;50.006;21.964;2023-02-22T18:41:52;99174.69;;;5.09;66.98
57000;BME280;42891;50.006;21.964;2023-02-22T18:45:52;99175.44;;;4.97;66.39
57000;BME280;42891;50.006;21.964;2023-02-22T18:49:53;99159.25;;;4.63;66.95
57000;BME280;42891;50.006;21.964;2023-02-22T18:53:56;99162.13;;;4.58;66.50
57000;BME280;42891;50.006;21.964;2023-02-22T18:57:59;99178.56;;;4.74;66.77
57000;BME280;42891;50.006;21.964;2023-02-22T19:02:00;99182.31;;;4.56;65.96
57000;BME280;42891;50.006;21.964;2023-02-22T19:06:02;99189.97;;;4.73;66.63
57000;BME280;42891;50.006;21.964;2023-02-22T19:10:05;99197.44;;;4.65;66.19
57000;BME280;42891;50.006;21.964;2023-02-22T19:14:05;99170.06;;;4.56;65.94
57000;BME280;42891;50.006;21.964;2023-02-22T19:18:07;99194.72;;;4.81;65.82
57000;BME280;42891;50.006;21.964;2023-02-22T19:22:07;99208.34;;;4.72;65.66
57000;BME280;42891;50.006;21.964;2023-02-22T19:26:08;99191.19;;;4.39;66.00
57000;BME280;42891;50.006;21.964;2023-02-22T19:30:09;99199.22;;;4.65;66.31
57000;BME280;42891;50.006;21.964;2023-02-22T19:34:11;99214.34;;;4.59;66.11
57000;BME280;42891;50.006;21.964;2023-02-22T19:38:13;99200.13;;;4.49;65.28
57000;BME280;42891;50.006;21.964;2023-02-22T19:42:14;99226.47;;;4.46;65.64
57000;BME280;42891;50.006;21.964;2023-02-22T19:46:16;99223.22;;;4.57;65.32
57000;BME280;42891;50.006;21.964;2023-02-22T19:50:24;99210.53;;;4.65;66.22
57000;BME280;42891;50.006;21.964;2023-02-22T19:54:24;99227.34;;;4.75;65.08
57000;BME280;42891;50.006;21.964;2023-02-22T19:58:24;99217.88;;;4.44;65.21
57000;BME280;42891;50.006;21.964;2023-02-22T20:02:24;99229.38;;;4.56;65.46
57000;BME280;42891;50.006;21.964;2023-02-22T20:06:31;99216.72;;;4.19;65.96
57000;BME280;42891;50.006;21.964;2023-02-22T20:10:33;99234.28;;;4.32;65.95
57000;BME280;42891;50.006;21.964;2023-02-22T20:14:34;99227.00;;;4.22;66.05
57000;BME280;42891;50.006;21.964;2023-02-22T20:18:35;99218.88;;;3.97;66.71
57000;BME280;42891;50.006;21.964;2023-02-22T20:22:35;99183.47;;;3.77;67.03
57000;BME280;42891;50.006;21.964;2023-02-22T20:26:37;99223.31;;;3.80;66.56
57000;BME280;42891;50.006;21.964;2023-02-22T20:30:38;99216.75;;;3.73;67.18
57000;BME280;42891;50.006;21.964;2023-02-22T20:34:43;99226.00;;;3.79;66.77
57000;BME280;42891;50.006;21.964;2023-02-22T20:38:44;99213.66;;;3.66;66.49
57000;BME280;42891;50.006;21.964;2023-02-22T20:42:44;99231.59;;;3.72;67.27
57000;BME280;42891;50.006;21.964;2023-02-22T20:46:47;99199.03;;;3.32;67.48
57000;BME280;42891;50.006;21.964;2023-02-22T20:50:47;99231.09;;;3.66;67.47
57000;BME280;42891;50.006;21.964;2023-02-22T20:54:47;99231.69;;;3.55;66.76
57000;BME280;42891;50.006;21.964;2023-02-22T20:58:48;99227.91;;;3.45;66.40
57000;BME280;42891;50.006;21.964;2023-02-22T21:02:49;99213.69;;;3.34;66.45
57000;BME280;42891;50.006;21.964;2023-02-22T21:06:49;99231.19;;;3.48;66.28
57000;BME280;42891;50.006;21.964;2023-02-22T21:10:50;99201.22;;;3.39;65.96
57000;BME280;42891;50.006;21.964;2023-02-22T21:14:51;99237.00;;;3.53;65.61
57000;BME280;42891;50.006;21.964;2023-02-22T21:18:56;99243.75;;;3.57;66.29
57000;BME280;42891;50.006;21.964;2023-02-22T21:23:00;99237.25;;;3.65;66.22
57000;BME280;42891;50.006;21.964;2023-02-22T21:27:02;99241.47;;;3.51;66.25
57000;BME280;42891;50.006;21.964;2023-02-22T21:31:04;99244.06;;;3.67;65.10
57000;BME280;42891;50.006;21.964;2023-02-22T21:35:05;99216.38;;;3.49;64.38
57000;BME280;42891;50.006;21.964;2023-02-22T21:39:06;99245.44;;;3.58;63.96
57000;BME280;42891;50.006;21.964;2023-02-22T21:43:16;99257.94;;;3.68;64.09
57000;BME280;42891;50.006;21.964;2023-02-22T21:47:18;99251.66;;;3.56;64.31
57000;BME280;42891;50.006;21.964;2023-02-22T21:51:23;99241.03;;;3.59;64.17
57000;BME280;42891;50.006;21.964;2023-02-22T21:55:31;99249.28;;;3.67;64.77
57000;BME280;42891;50.006;21.964;2023-02-22T21:59:32;99258.47;;;3.74;64.34
57000;BME280;42891;50.006;21.964;2023-02-22T22:03:33;99244.56;;;3.58;64.38
57000;BME280;42891;50.006;21.964;2023-02-22T22:07:35;99244.34;;;3.63;63.68
57000;BME280;42891;50.006;21.964;2023-02-22T22:11:35;99245.75;;;3.68;63.29
57000;BME280;42891;50.006;21.964;2023-02-22T22:15:35;99252.41;;;3.74;62.99
57000;BME280;42891;50.006;21.964;2023-02-22T22:19:37;99253.31;;;3.73;62.52
57000;BME280;42891;50.006;21.964;2023-02-22T22:23:42;99194.44;;;3.21;61.86
57000;BME280;42891;50.006;21.964;2023-02-22T22:27:44;99211.34;;;3.30;62.54
57000;BME280;42891;50.006;21.964;2023-02-22T22:31:45;99243.31;;;3.49;62.27
57000;BME280;42891;50.006;21.964;2023-02-22T22:35:45;99243.69;;;3.43;61.73
57000;BME280;42891;50.006;21.964;2023-02-22T22:39:45;99207.91;;;3.29;61.19
57000;BME280;42891;50.006;21.964;2023-02-22T22:43:46;99244.78;;;3.39;61.65
57000;BME280;42891;50.006;21.964;2023-02-22T22:47:46;99228.00;;;3.43;61.92
57000;BME280;42891;50.006;21.964;2023-02-22T22:51:47;99235.75;;;3.29;61.26
57000;BME280;42891;50.006;21.964;2023-02-22T22:55:47;99237.09;;;3.36;61.65
57000;BME280;42891;50.006;21.964;2023-02-22T22:59:47;99226.81;;;3.33;61.97
57000;BME280;42891;50.006;21.964;2023-02-22T23:03:53;99224.28;;;3.31;61.62